createdAt,value
2023-02-14T00:00:31.478Z,102715.80
2023-02-14T00:02:03.453Z,102715.40
2023-02-14T00:03:35.152Z,102709.40
2023-02-14T00:05:07.694Z,102706.60
2023-02-14T00:06:40.117Z,102709.80
2023-02-14T00:08:11.845Z,102708.80
2023-02-14T00:09:43.626Z,102705.60
2023-02-14T00:11:15.340Z,102709.80
2023-02-14T00:12:47.111Z,102706.80
2023-02-14T00:14:37.779Z,102707.60
2023-02-14T00:16:09.581Z,102704.00
2023-02-14T00:17:41.350Z,102705.80
2023-02-14T00:19:16.003Z,102703.40
2023-02-14T00:20:47.909Z,102702.00
2023-02-14T00:22:19.715Z,102699.40
2023-02-14T00:23:51.401Z,102696.60
2023-02-14T00:25:23.243Z,102700.20
2023-02-14T00:26:55.190Z,102695.40
2023-02-14T00:28:26.916Z,102697.00
2023-02-14T00:30:02.096Z,102700.40
2023-02-14T00:31:34.901Z,102699.60
2023-02-14T00:33:06.713Z,102699.20
2023-02-14T00:34:40.853Z,102700.20
2023-02-14T00:36:18.261Z,102692.40
2023-02-14T00:37:49.987Z,102698.00
2023-02-14T00:39:24.695Z,102698.80
2023-02-14T00:40:56.577Z,102697.00
2023-02-14T00:42:28.957Z,102701.20
2023-02-14T00:44:01.555Z,102702.20
2023-02-14T00:45:33.414Z,102700.80
2023-02-14T00:47:05.668Z,102703.00
2023-02-14T00:48:37.818Z,102704.60
2023-02-14T00:50:09.999Z,102703.20
2023-02-14T00:51:41.799Z,102699.80
2023-02-14T00:53:14.364Z,102703.00
2023-02-14T00:54:46.168Z,102702.80
2023-02-14T00:56:20.678Z,102704.80
2023-02-14T00:57:52.402Z,102701.40
2023-02-14T00:59:25.839Z,102705.80
2023-02-14T01:00:59.086Z,102700.80
2023-02-14T01:02:31.085Z,102700.40
2023-02-14T01:04:03.015Z,102695.40
2023-02-14T01:05:34.702Z,102698.20
2023-02-14T01:07:08.814Z,102698.00
2023-02-14T01:08:40.683Z,102704.80
2023-02-14T01:10:13.266Z,102710.20
2023-02-14T01:11:45.180Z,102709.60
2023-02-14T01:13:17.890Z,102707.00
2023-02-14T01:14:49.667Z,102711.40
2023-02-14T01:16:27.006Z,102706.80
2023-02-14T01:18:00.537Z,102704.00
2023-02-14T01:19:32.356Z,102708.00
2023-02-14T01:21:25.246Z,102706.40
2023-02-14T01:22:57.497Z,102703.00
2023-02-14T01:24:29.277Z,102706.60
2023-02-14T01:26:06.006Z,102703.40
2023-02-14T01:27:37.808Z,102700.40
2023-02-14T01:29:09.599Z,102698.40
2023-02-14T01:30:41.465Z,102691.60
2023-02-14T01:32:14.717Z,102691.60
2023-02-14T01:33:49.509Z,102695.80
2023-02-14T01:35:21.297Z,102694.40
2023-02-14T01:36:53.199Z,102700.80
2023-02-14T01:38:24.964Z,102699.00
2023-02-14T01:39:56.839Z,102698.60
2023-02-14T01:41:34.401Z,102700.20
2023-02-14T01:43:14.704Z,102700.60
2023-02-14T01:44:46.521Z,102702.40
2023-02-14T01:46:18.394Z,102701.60
2023-02-14T01:47:56.543Z,102704.00
2023-02-14T01:49:52.585Z,102701.60
2023-02-14T01:51:25.781Z,102701.20
2023-02-14T01:53:12.744Z,102701.20
2023-02-14T01:55:00.063Z,102704.80
2023-02-14T01:56:41.754Z,102700.20
2023-02-14T01:58:25.090Z,102701.00
2023-02-14T02:00:20.787Z,102701.40
2023-02-14T02:01:53.539Z,102700.60
2023-02-14T02:03:37.351Z,102699.00
2023-02-14T02:05:09.234Z,102698.60
2023-02-14T02:06:49.686Z,102697.60
2023-02-14T02:08:21.946Z,102694.80
2023-02-14T02:10:00.288Z,102695.80
2023-02-14T02:11:32.166Z,102693.00
2023-02-14T02:13:09.181Z,102687.20
2023-02-14T02:14:42.948Z,102689.00
2023-02-14T02:16:22.267Z,102691.40
2023-02-14T02:18:46.039Z,102684.60
2023-02-14T02:20:51.227Z,102683.60
2023-02-14T02:22:45.615Z,102681.20
2023-02-14T02:24:39.132Z,102682.40
2023-02-14T02:26:34.932Z,102680.80
2023-02-14T02:28:34.277Z,102680.40
2023-02-14T02:30:59.990Z,102682.00
2023-02-14T02:32:31.867Z,102676.40
2023-02-14T02:34:42.592Z,102674.60
2023-02-14T02:36:44.791Z,102670.00
2023-02-14T02:38:51.519Z,102665.00
2023-02-14T02:40:53.959Z,102664.60
2023-02-14T02:43:06.726Z,102661.00
2023-02-14T02:45:01.818Z,102661.60
2023-02-14T02:46:49.250Z,102659.00
2023-02-14T02:48:24.494Z,102654.20
2023-02-14T02:50:42.427Z,102657.80
2023-02-14T02:52:41.470Z,102658.00
2023-02-14T02:54:47.475Z,102663.40
2023-02-14T02:56:48.665Z,102661.40
2023-02-14T02:58:27.534Z,102663.20
2023-02-14T03:00:02.294Z,102657.40
2023-02-14T03:01:39.413Z,102657.80
2023-02-14T03:03:31.261Z,102657.80
2023-02-14T03:05:05.970Z,102653.60
2023-02-14T03:06:37.760Z,102654.60
2023-02-14T03:08:09.626Z,102652.80
2023-02-14T03:09:53.631Z,102660.00
2023-02-14T03:11:26.304Z,102655.20
2023-02-14T03:13:23.220Z,102657.60
2023-02-14T03:15:10.698Z,102658.60
2023-02-14T03:17:21.966Z,102660.00
2023-02-14T03:19:27.085Z,102656.80
2023-02-14T03:21:12.385Z,102659.40
2023-02-14T03:23:08.724Z,102662.40
2023-02-14T03:25:24.171Z,102661.20
2023-02-14T03:27:04.825Z,102651.80
2023-02-14T03:28:47.692Z,102647.60
2023-02-14T03:30:41.859Z,102653.80
2023-02-14T03:32:39.705Z,102655.00
2023-02-14T03:34:21.239Z,102652.40
2023-02-14T03:36:19.970Z,102660.00
2023-02-14T03:38:03.693Z,102660.60
2023-02-14T03:39:46.780Z,102660.00
2023-02-14T03:41:25.430Z,102660.00
2023-02-14T03:43:04.880Z,102658.20
2023-02-14T03:44:39.698Z,102662.40
2023-02-14T03:46:24.438Z,102658.20
2023-02-14T03:48:04.141Z,102654.60
2023-02-14T03:49:44.046Z,102657.40
2023-02-14T03:51:19.259Z,102654.60
2023-02-14T03:52:53.876Z,102653.00
2023-02-14T03:54:28.589Z,102653.60
2023-02-14T03:56:08.384Z,102655.20
2023-02-14T03:57:57.708Z,102651.80
2023-02-14T03:59:29.999Z,102653.60
2023-02-14T04:01:15.078Z,102648.60
2023-02-14T04:02:54.960Z,102649.80
2023-02-14T04:04:35.506Z,102651.60
2023-02-14T04:06:07.542Z,102648.60
2023-02-14T04:07:55.572Z,102650.20
2023-02-14T04:09:27.263Z,102645.40
2023-02-14T04:11:02.986Z,102645.00
2023-02-14T04:12:37.922Z,102648.00
2023-02-14T04:14:09.964Z,102648.60
2023-02-14T04:15:41.740Z,102648.80
2023-02-14T04:17:31.990Z,102639.40
2023-02-14T04:19:22.115Z,102644.60
2023-02-14T04:20:53.889Z,102643.20
2023-02-14T04:22:25.778Z,102640.80
2023-02-14T04:23:57.510Z,102643.20
2023-02-14T04:25:29.551Z,102644.00
2023-02-14T04:27:13.060Z,102645.40
2023-02-14T04:28:44.775Z,102644.40
2023-02-14T04:30:18.089Z,102643.20
2023-02-14T04:31:50.048Z,102639.60
2023-02-14T04:33:21.922Z,102637.20
2023-02-14T04:34:53.861Z,102642.20
2023-02-14T04:36:25.609Z,102639.60
2023-02-14T04:37:57.612Z,102639.00
2023-02-14T04:39:29.696Z,102636.80
2023-02-14T04:41:01.848Z,102634.60
2023-02-14T04:42:34.558Z,102636.80
2023-02-14T04:44:06.250Z,102634.80
2023-02-14T04:45:37.994Z,102634.00
2023-02-14T04:47:09.802Z,102623.00
2023-02-14T04:48:41.605Z,102626.40
2023-02-14T04:50:14.338Z,102629.00
2023-02-14T04:51:46.774Z,102629.00
2023-02-14T04:53:19.381Z,102623.20
2023-02-14T04:54:51.163Z,102621.40
2023-02-14T04:56:22.868Z,102622.00
2023-02-14T04:57:54.586Z,102615.40
2023-02-14T04:59:26.535Z,102615.20
2023-02-14T05:00:58.853Z,102612.00
2023-02-14T05:02:30.832Z,102610.80
2023-02-14T05:04:02.806Z,102614.20
2023-02-14T05:05:34.529Z,102611.60
2023-02-14T05:07:06.440Z,102610.00
2023-02-14T05:08:38.262Z,102607.00
2023-02-14T05:10:10.767Z,102602.00
2023-02-14T05:11:42.512Z,102605.00
2023-02-14T05:13:14.475Z,102596.80
2023-02-14T05:14:46.878Z,102600.40
2023-02-14T05:16:18.749Z,102597.80
2023-02-14T05:17:50.428Z,102596.20
2023-02-14T05:19:22.237Z,102596.20
2023-02-14T05:20:54.795Z,102595.00
2023-02-14T05:22:26.498Z,102593.20
2023-02-14T05:23:58.294Z,102593.20
2023-02-14T05:25:31.382Z,102591.20
2023-02-14T05:27:03.071Z,102594.20
2023-02-14T05:28:35.599Z,102595.60
2023-02-14T05:30:08.305Z,102592.00
2023-02-14T05:31:40.160Z,102593.40
2023-02-14T05:33:12.384Z,102592.40
2023-02-14T05:34:44.108Z,102587.40
2023-02-14T05:36:15.964Z,102591.20
2023-02-14T05:37:47.707Z,102594.80
2023-02-14T05:39:19.599Z,102589.00
2023-02-14T05:40:51.357Z,102588.60
2023-02-14T05:42:23.049Z,102585.80
2023-02-14T05:43:55.064Z,102586.00
2023-02-14T05:45:26.879Z,102585.40
2023-02-14T05:46:58.602Z,102579.80
2023-02-14T05:48:30.331Z,102581.40
2023-02-14T05:50:02.286Z,102582.40
2023-02-14T05:51:34.038Z,102582.80
2023-02-14T05:53:05.824Z,102579.80
2023-02-14T05:54:37.514Z,102579.40
2023-02-14T05:56:09.340Z,102580.80
2023-02-14T05:57:41.355Z,102580.60
2023-02-14T05:59:14.568Z,102582.60
2023-02-14T06:00:47.715Z,102582.00
2023-02-14T06:02:19.481Z,102578.80
2023-02-14T06:03:51.293Z,102579.80
2023-02-14T06:05:23.038Z,102581.20
2023-02-14T06:06:54.762Z,102582.00
2023-02-14T06:08:26.565Z,102591.00
2023-02-14T06:09:58.415Z,102590.20
2023-02-14T06:11:30.169Z,102595.80
2023-02-14T06:13:02.292Z,102593.20
2023-02-14T06:14:34.080Z,102595.60
2023-02-14T06:16:06.358Z,102592.60
2023-02-14T06:17:38.101Z,102597.40
2023-02-14T06:19:09.986Z,102599.20
2023-02-14T06:20:41.839Z,102599.60
2023-02-14T06:22:13.559Z,102607.60
2023-02-14T06:23:45.330Z,102609.40
2023-02-14T06:25:17.447Z,102609.80
2023-02-14T06:26:49.161Z,102613.60
2023-02-14T06:28:20.857Z,102612.80
2023-02-14T06:29:52.742Z,102614.20
2023-02-14T06:31:26.076Z,102613.60
2023-02-14T06:32:59.971Z,102612.00
2023-02-14T06:34:31.925Z,102612.00
2023-02-14T06:36:03.882Z,102614.40
2023-02-14T06:37:35.796Z,102616.60
2023-02-14T06:39:07.606Z,102617.80
2023-02-14T06:40:39.461Z,102617.60
2023-02-14T06:42:11.298Z,102620.20
2023-02-14T06:43:50.559Z,102619.20
2023-02-14T06:45:22.305Z,102620.20
2023-02-14T06:46:53.972Z,102622.80
2023-02-14T06:48:26.013Z,102625.40
2023-02-14T06:49:59.921Z,102621.20
2023-02-14T06:51:31.649Z,102626.20
2023-02-14T06:53:03.522Z,102623.40
2023-02-14T06:54:35.273Z,102631.00
2023-02-14T06:56:07.384Z,102636.80
2023-02-14T06:57:40.204Z,102632.00
2023-02-14T06:59:12.018Z,102638.20
2023-02-14T07:00:43.708Z,102634.00
2023-02-14T07:02:15.517Z,102633.00
2023-02-14T07:03:47.372Z,102632.20
2023-02-14T07:05:19.262Z,102633.00
2023-02-14T07:06:51.136Z,102639.40
2023-02-14T07:08:24.160Z,102632.20
2023-02-14T07:09:57.790Z,102638.60
2023-02-14T07:11:30.001Z,102634.00
2023-02-14T07:13:02.165Z,102639.60
2023-02-14T07:14:33.914Z,102629.40
2023-02-14T07:16:06.078Z,102632.20
2023-02-14T07:17:38.493Z,102635.40
2023-02-14T07:19:10.291Z,102632.80
2023-02-14T07:20:42.106Z,102632.20
2023-02-14T07:22:13.814Z,102639.40
2023-02-14T07:23:47.739Z,102640.60
2023-02-14T07:25:19.513Z,102633.00
2023-02-14T07:26:51.299Z,102637.00
2023-02-14T07:28:26.907Z,102634.80
2023-02-14T07:29:58.821Z,102634.00
2023-02-14T07:31:30.752Z,102638.00
2023-02-14T07:33:02.631Z,102631.60
2023-02-14T07:34:34.598Z,102643.60
2023-02-14T07:36:10.437Z,102641.20
2023-02-14T07:37:42.259Z,102636.20
2023-02-14T07:39:14.040Z,102632.60
2023-02-14T07:40:45.741Z,102635.80
2023-02-14T07:42:17.459Z,102635.20
2023-02-14T07:43:50.019Z,102629.20
2023-02-14T07:45:23.139Z,102630.60
2023-02-14T07:46:57.646Z,102627.00
2023-02-14T07:48:31.940Z,102632.60
2023-02-14T07:50:05.990Z,102631.00
2023-02-14T07:51:37.843Z,102632.80
2023-02-14T07:53:09.784Z,102629.40
2023-02-14T07:54:41.645Z,102625.00
2023-02-14T07:56:13.352Z,102624.60
2023-02-14T07:57:49.120Z,102620.40
2023-02-14T07:59:21.621Z,102625.40
2023-02-14T08:00:53.363Z,102622.20
2023-02-14T08:02:25.078Z,102623.40
2023-02-14T08:03:56.790Z,102626.60
2023-02-14T08:05:28.679Z,102619.80
2023-02-14T08:07:00.430Z,102626.60
2023-02-14T08:08:32.617Z,102636.20
2023-02-14T08:10:05.281Z,102626.20
2023-02-14T08:11:56.430Z,102628.60
2023-02-14T08:13:28.171Z,102628.20
2023-02-14T08:15:19.854Z,102630.80
2023-02-14T08:16:51.618Z,102627.40
2023-02-14T08:18:23.363Z,102628.20
2023-02-14T08:19:55.060Z,102627.60
2023-02-14T08:21:27.886Z,102630.80
2023-02-14T08:22:59.679Z,102630.80
2023-02-14T08:24:31.986Z,102631.20
2023-02-14T08:26:04.395Z,102629.40
2023-02-14T08:27:36.401Z,102632.00
2023-02-14T08:29:08.169Z,102626.80
2023-02-14T08:30:42.250Z,102625.20
2023-02-14T08:32:15.876Z,102621.80
2023-02-14T08:33:47.667Z,102622.00
2023-02-14T08:35:19.419Z,102617.20
2023-02-14T08:36:52.071Z,102625.40
2023-02-14T08:38:24.837Z,102622.60
2023-02-14T08:39:56.555Z,102627.20
2023-02-14T08:41:28.440Z,102630.00
2023-02-14T08:43:00.332Z,102634.00
2023-02-14T08:44:32.444Z,102629.20
2023-02-14T08:46:04.555Z,102628.00
2023-02-14T08:47:38.350Z,102627.40
2023-02-14T08:49:10.533Z,102631.20
2023-02-14T08:50:42.770Z,102629.40
2023-02-14T08:52:14.434Z,102626.80
2023-02-14T08:53:46.627Z,102626.20
2023-02-14T08:55:18.632Z,102625.40
2023-02-14T08:56:50.407Z,102627.20
2023-02-14T08:58:22.200Z,102629.00
2023-02-14T08:59:54.398Z,102627.00
2023-02-14T09:01:26.233Z,102629.80
2023-02-14T09:02:59.098Z,102633.40
2023-02-14T09:04:30.992Z,102627.40
2023-02-14T09:06:11.932Z,102632.40
2023-02-14T09:07:43.697Z,102632.80
2023-02-14T09:09:17.428Z,102625.20
2023-02-14T09:10:49.186Z,102625.60
2023-02-14T09:12:20.952Z,102623.20
2023-02-14T09:13:54.668Z,102620.80
2023-02-14T09:15:26.594Z,102626.20
2023-02-14T09:17:01.391Z,102620.40
2023-02-14T09:18:34.209Z,102619.60
2023-02-14T09:20:10.795Z,102620.60
2023-02-14T09:21:42.544Z,102620.60
2023-02-14T09:23:14.267Z,102616.20
2023-02-14T09:24:45.983Z,102615.40
2023-02-14T09:26:19.053Z,102613.40
2023-02-14T09:27:50.846Z,102613.40
2023-02-14T09:29:22.781Z,102614.40
2023-02-14T09:30:54.720Z,102609.00
2023-02-14T09:32:27.195Z,102605.00
2023-02-14T09:33:59.029Z,102601.20
2023-02-14T09:35:31.290Z,102601.20
2023-02-14T09:37:04.875Z,102598.40
2023-02-14T09:38:38.467Z,102597.60
2023-02-14T09:40:15.370Z,102592.80
2023-02-14T09:42:22.345Z,102595.40
2023-02-14T09:44:07.631Z,102596.60
2023-02-14T09:45:40.591Z,102592.20
2023-02-14T09:47:20.884Z,102594.60
2023-02-14T09:48:54.644Z,102592.00
2023-02-14T09:51:07.184Z,102591.80
2023-02-14T09:52:38.987Z,102594.20
2023-02-14T09:54:21.913Z,102598.40
2023-02-14T09:56:23.963Z,102593.60
2023-02-14T09:58:08.162Z,102591.20
2023-02-14T09:59:51.784Z,102592.00
2023-02-14T10:01:51.284Z,102589.80
2023-02-14T10:04:21.504Z,102588.60
2023-02-14T10:06:55.286Z,102591.60
2023-02-14T10:09:13.664Z,102586.80
2023-02-14T10:11:00.064Z,102586.80
2023-02-14T10:12:43.575Z,102591.00
2023-02-14T10:14:21.385Z,102584.60
2023-02-14T10:16:32.416Z,102587.00
2023-02-14T10:18:17.068Z,102582.20
2023-02-14T10:20:02.916Z,102584.00
2023-02-14T10:22:09.928Z,102584.40
2023-02-14T10:23:51.498Z,102585.20
2023-02-14T10:25:32.491Z,102582.80
2023-02-14T10:27:14.378Z,102580.00
2023-02-14T10:28:50.848Z,102586.20
2023-02-14T10:30:27.287Z,102585.80
2023-02-14T10:32:04.745Z,102584.60
2023-02-14T10:33:41.671Z,102586.20
2023-02-14T10:35:24.606Z,102582.20
2023-02-14T10:37:28.867Z,102580.20
2023-02-14T10:39:34.430Z,102578.60
2023-02-14T10:41:39.676Z,102576.20
2023-02-14T10:43:41.956Z,102581.80
2023-02-14T10:45:34.954Z,102578.60
2023-02-14T10:47:32.662Z,102579.80
2023-02-14T10:49:31.596Z,102579.20
2023-02-14T10:51:33.450Z,102576.20
2023-02-14T10:54:02.929Z,102573.80
2023-02-14T10:55:43.653Z,102574.40
2023-02-14T10:57:26.723Z,102571.00
2023-02-14T10:59:15.076Z,102570.00
2023-02-14T11:01:08.433Z,102568.20
2023-02-14T11:02:46.366Z,102565.80
2023-02-14T11:04:21.504Z,102561.20
2023-02-14T11:05:53.772Z,102559.60
2023-02-14T11:07:25.620Z,102558.80
2023-02-14T11:08:57.578Z,102558.60
2023-02-14T11:10:34.246Z,102558.80
2023-02-14T11:12:06.515Z,102556.00
2023-02-14T11:13:41.861Z,102554.60
2023-02-14T11:15:31.393Z,102554.80
2023-02-14T11:17:32.396Z,102552.80
2023-02-14T11:19:31.276Z,102548.40
2023-02-14T11:21:24.255Z,102544.00
2023-02-14T11:22:57.008Z,102541.40
2023-02-14T11:24:39.388Z,102541.00
2023-02-14T11:26:33.042Z,102536.80
2023-02-14T11:28:13.927Z,102534.60
2023-02-14T11:29:52.936Z,102533.60
2023-02-14T11:31:35.290Z,102536.40
2023-02-14T11:33:23.940Z,102534.60
2023-02-14T11:35:37.091Z,102534.80
2023-02-14T11:37:38.354Z,102528.40
2023-02-14T11:39:24.934Z,102526.20
2023-02-14T11:40:59.994Z,102526.00
2023-02-14T11:42:46.547Z,102522.20
2023-02-14T11:44:26.928Z,102517.00
2023-02-14T11:46:27.313Z,102516.00
2023-02-14T11:48:31.418Z,102515.20
2023-02-14T11:50:25.992Z,102507.00
2023-02-14T11:52:10.336Z,102501.00
2023-02-14T11:53:50.653Z,102499.80
2023-02-14T11:55:30.236Z,102497.20
2023-02-14T11:57:12.120Z,102493.40
2023-02-14T11:59:05.710Z,102488.60
2023-02-14T12:00:37.960Z,102480.40
2023-02-14T12:02:31.114Z,102482.00
2023-02-14T12:04:46.349Z,102483.80
2023-02-14T12:06:28.939Z,102479.80
2023-02-14T12:08:08.118Z,102477.60
2023-02-14T12:09:42.625Z,102475.20
2023-02-14T12:11:23.820Z,102475.80
2023-02-14T12:13:01.651Z,102479.80
2023-02-14T12:14:35.641Z,102483.60
2023-02-14T12:16:26.823Z,102478.40
2023-02-14T12:18:11.708Z,102476.60
2023-02-14T12:19:58.309Z,102472.00
2023-02-14T12:21:58.182Z,102468.20
2023-02-14T12:23:56.135Z,102467.60
2023-02-14T12:25:43.146Z,102464.00
2023-02-14T12:27:17.686Z,102461.80
2023-02-14T12:29:05.112Z,102463.20
2023-02-14T12:30:36.803Z,102460.40
2023-02-14T12:32:23.277Z,102460.60
2023-02-14T12:33:55.066Z,102465.60
2023-02-14T12:36:14.870Z,102458.80
2023-02-14T12:38:32.311Z,102457.20
2023-02-14T12:40:21.504Z,102452.60
2023-02-14T12:42:02.829Z,102449.20
2023-02-14T12:43:50.723Z,102450.40
2023-02-14T12:46:01.103Z,102447.80
2023-02-14T12:48:16.348Z,102444.60
2023-02-14T12:50:39.060Z,102441.80
2023-02-14T12:52:58.734Z,102441.80
2023-02-14T12:54:48.649Z,102437.60
2023-02-14T12:56:48.979Z,102433.80
2023-02-14T12:58:36.080Z,102432.80
2023-02-14T13:00:12.552Z,102433.20
2023-02-14T13:02:02.861Z,102430.80
2023-02-14T13:04:14.639Z,102429.60
2023-02-14T13:06:10.640Z,102426.40
2023-02-14T13:08:17.590Z,102425.20
2023-02-14T13:10:04.563Z,102419.40
2023-02-14T13:11:42.219Z,102420.80
2023-02-14T13:13:37.241Z,102416.60
2023-02-14T13:15:35.663Z,102421.00
2023-02-14T13:17:38.106Z,102418.20
2023-02-14T13:19:49.584Z,102413.60
2023-02-14T13:21:31.585Z,102411.20
2023-02-14T13:23:13.555Z,102415.40
2023-02-14T13:24:50.569Z,102409.20
2023-02-14T13:26:33.139Z,102407.00
2023-02-14T13:28:12.315Z,102401.00
2023-02-14T13:29:50.989Z,102401.00
2023-02-14T13:31:23.471Z,102400.80
2023-02-14T13:33:03.080Z,102401.40
2023-02-14T13:34:49.596Z,102400.80
2023-02-14T13:36:22.744Z,102401.80
2023-02-14T13:38:08.486Z,102397.20
2023-02-14T13:39:45.685Z,102395.20
2023-02-14T13:41:21.111Z,102391.40
2023-02-14T13:42:57.652Z,102389.20
2023-02-14T13:44:50.473Z,102384.40
2023-02-14T13:46:34.162Z,102381.00
2023-02-14T13:48:05.813Z,102379.20
2023-02-14T13:49:46.356Z,102376.00
2023-02-14T13:51:18.161Z,102376.20
2023-02-14T13:52:50.100Z,102373.20
2023-02-14T13:54:45.799Z,102372.40
2023-02-14T13:56:17.749Z,102368.60
2023-02-14T13:58:18.538Z,102369.80
2023-02-14T14:00:19.017Z,102369.00
2023-02-14T14:01:51.435Z,102364.40
2023-02-14T14:03:28.976Z,102362.40
2023-02-14T14:05:00.884Z,102360.00
2023-02-14T14:07:03.394Z,102358.40
2023-02-14T14:08:48.170Z,102360.00
2023-02-14T14:10:45.452Z,102362.20
2023-02-14T14:12:29.037Z,102358.00
2023-02-14T14:14:25.135Z,102356.80
2023-02-14T14:16:27.869Z,102352.40
2023-02-14T14:18:14.962Z,102350.20
2023-02-14T14:19:47.336Z,102349.80
2023-02-14T14:21:37.773Z,102350.80
2023-02-14T14:23:44.996Z,102345.80
2023-02-14T14:25:41.721Z,102349.20
2023-02-14T14:27:19.714Z,102346.00
2023-02-14T14:28:51.525Z,102346.60
2023-02-14T14:30:33.569Z,102344.00
2023-02-14T14:32:34.695Z,102340.60
2023-02-14T14:34:06.562Z,102342.80
2023-02-14T14:35:38.405Z,102342.20
2023-02-14T14:37:21.758Z,102343.80
2023-02-14T14:38:54.167Z,102340.40
2023-02-14T14:40:31.524Z,102338.60
2023-02-14T14:42:17.165Z,102335.40
2023-02-14T14:43:49.059Z,102333.60
2023-02-14T14:45:26.565Z,102334.00
2023-02-14T14:47:02.370Z,102334.60
2023-02-14T14:48:45.585Z,102329.80
2023-02-14T14:50:22.742Z,102330.00
2023-02-14T14:51:57.255Z,102332.40
2023-02-14T14:53:36.581Z,102329.60
2023-02-14T14:55:21.351Z,102332.20
2023-02-14T14:57:01.827Z,102328.00
2023-02-14T14:58:36.361Z,102325.60
2023-02-14T15:00:19.737Z,102324.00
2023-02-14T15:01:52.349Z,102318.00
2023-02-14T15:03:28.320Z,102319.40
2023-02-14T15:05:22.996Z,102314.40
2023-02-14T15:06:57.516Z,102313.40
2023-02-14T15:08:31.504Z,102315.60
2023-02-14T15:10:04.397Z,102311.80
2023-02-14T15:11:55.345Z,102313.60
2023-02-14T15:13:50.182Z,102308.40
2023-02-14T15:15:22.390Z,102309.00
2023-02-14T15:17:00.118Z,102309.40
2023-02-14T15:18:32.069Z,102309.60
2023-02-14T15:20:19.714Z,102305.60
2023-02-14T15:21:51.562Z,102310.20
2023-02-14T15:23:25.105Z,102307.20
2023-02-14T15:24:58.106Z,102308.60
2023-02-14T15:26:35.848Z,102304.40
2023-02-14T15:28:07.623Z,102303.80
2023-02-14T15:29:39.287Z,102303.20
2023-02-14T15:31:11.940Z,102302.60
2023-02-14T15:32:44.717Z,102302.40
2023-02-14T15:34:23.668Z,102298.20
2023-02-14T15:36:02.007Z,102291.80
2023-02-14T15:37:34.611Z,102293.20
2023-02-14T15:39:09.631Z,102296.60
2023-02-14T15:40:44.046Z,102297.80
2023-02-14T15:42:32.420Z,102295.80
2023-02-14T15:44:04.634Z,102298.20
2023-02-14T15:45:36.624Z,102293.60
2023-02-14T15:47:14.732Z,102288.40
2023-02-14T15:48:47.349Z,102290.60
2023-02-14T15:50:27.781Z,102292.20
2023-02-14T15:52:04.264Z,102294.40
2023-02-14T15:53:53.630Z,102292.60
2023-02-14T15:55:27.460Z,102294.80
2023-02-14T15:57:00.044Z,102294.60
2023-02-14T15:58:33.291Z,102293.80
2023-02-14T16:00:11.203Z,102290.80
2023-02-14T16:01:54.475Z,102290.20
2023-02-14T16:03:33.618Z,102290.80
2023-02-14T16:05:19.613Z,102293.80
2023-02-14T16:07:08.498Z,102296.40
2023-02-14T16:08:41.856Z,102295.80
2023-02-14T16:10:31.425Z,102296.60
2023-02-14T16:12:34.432Z,102305.60
2023-02-14T16:14:38.081Z,102300.20
2023-02-14T16:16:15.745Z,102299.40
2023-02-14T16:17:48.487Z,102296.40
2023-02-14T16:19:36.927Z,102299.00
2023-02-14T16:21:17.686Z,102300.20
2023-02-14T16:22:50.502Z,102296.60
2023-02-14T16:24:22.190Z,102298.80
2023-02-14T16:25:57.491Z,102302.80
2023-02-14T16:27:29.338Z,102297.80
2023-02-14T16:29:06.513Z,102301.80
2023-02-14T16:30:40.550Z,102296.60
2023-02-14T16:32:20.591Z,102298.20
2023-02-14T16:33:52.530Z,102300.00
2023-02-14T16:35:24.899Z,102302.40
2023-02-14T16:36:56.744Z,102298.40
2023-02-14T16:38:28.596Z,102298.20
2023-02-14T16:40:02.022Z,102302.20
2023-02-14T16:41:34.926Z,102300.40
2023-02-14T16:43:06.815Z,102305.80
2023-02-14T16:44:38.529Z,102304.00
2023-02-14T16:46:17.726Z,102306.40
2023-02-14T16:47:49.642Z,102299.60
2023-02-14T16:49:23.025Z,102301.40
2023-02-14T16:50:54.801Z,102307.40
2023-02-14T16:52:28.938Z,102306.40
2023-02-14T16:54:12.453Z,102310.60
2023-02-14T16:55:44.365Z,102312.60
2023-02-14T16:57:28.033Z,102313.60
2023-02-14T16:59:00.121Z,102317.20
2023-02-14T17:00:31.847Z,102313.60
2023-02-14T17:02:03.677Z,102316.00
2023-02-14T17:03:35.455Z,102319.80
2023-02-14T17:05:07.378Z,102320.20
2023-02-14T17:06:47.113Z,102321.80
2023-02-14T17:08:18.959Z,102319.00
2023-02-14T17:09:57.588Z,102320.00
2023-02-14T17:11:32.047Z,102321.00
2023-02-14T17:13:06.361Z,102317.40
2023-02-14T17:14:41.240Z,102316.20
2023-02-14T17:16:15.695Z,102318.20
2023-02-14T17:17:50.129Z,102319.40
2023-02-14T17:19:21.984Z,102319.40
2023-02-14T17:20:54.532Z,102320.00
2023-02-14T17:22:26.319Z,102318.20
2023-02-14T17:23:58.034Z,102319.20
2023-02-14T17:25:30.053Z,102317.80
2023-02-14T17:27:01.819Z,102319.00
2023-02-14T17:28:33.778Z,102316.80
2023-02-14T17:30:06.540Z,102319.40
2023-02-14T17:31:38.936Z,102318.80
2023-02-14T17:33:10.881Z,102324.00
2023-02-14T17:34:42.919Z,102320.00
2023-02-14T17:36:15.128Z,102323.60
2023-02-14T17:37:47.045Z,102325.00
2023-02-14T17:39:19.150Z,102325.40
2023-02-14T17:40:50.881Z,102320.60
2023-02-14T17:42:22.628Z,102321.80
2023-02-14T17:43:55.618Z,102321.00
2023-02-14T17:45:27.451Z,102323.80
2023-02-14T17:46:59.145Z,102322.80
2023-02-14T17:48:30.964Z,102324.80
2023-02-14T17:50:03.953Z,102329.60
2023-02-14T17:51:35.819Z,102328.00
2023-02-14T17:53:07.766Z,102328.00
2023-02-14T17:54:39.592Z,102327.40
2023-02-14T17:56:24.421Z,102329.40
2023-02-14T17:57:56.350Z,102327.60
2023-02-14T17:59:28.218Z,102329.40
2023-02-14T18:01:12.026Z,102326.20
2023-02-14T18:02:43.789Z,102327.20
2023-02-14T18:04:17.156Z,102325.80
2023-02-14T18:05:48.997Z,102320.20
2023-02-14T18:07:21.337Z,102325.20
2023-02-14T18:08:56.886Z,102326.60
2023-02-14T18:10:28.767Z,102326.40
2023-02-14T18:12:00.641Z,102325.40
2023-02-14T18:13:33.466Z,102319.80
2023-02-14T18:15:05.956Z,102320.80
2023-02-14T18:16:40.364Z,102320.60
2023-02-14T18:18:12.101Z,102317.40
2023-02-14T18:19:45.024Z,102320.00
2023-02-14T18:21:20.969Z,102315.60
2023-02-14T18:22:52.785Z,102320.20
2023-02-14T18:24:24.588Z,102310.00
2023-02-14T18:25:59.784Z,102307.80
2023-02-14T18:27:32.076Z,102306.60
2023-02-14T18:29:06.571Z,102300.80
2023-02-14T18:30:38.303Z,102303.40
2023-02-14T18:32:10.286Z,102301.00
2023-02-14T18:33:42.298Z,102298.60
2023-02-14T18:35:14.265Z,102307.40
2023-02-14T18:36:46.312Z,102300.60
2023-02-14T18:38:19.638Z,102303.20
2023-02-14T18:39:51.348Z,102302.40
2023-02-14T18:41:23.705Z,102306.80
2023-02-14T18:42:55.475Z,102310.20
2023-02-14T18:44:28.989Z,102303.80
2023-02-14T18:46:12.690Z,102301.80
2023-02-14T18:47:44.415Z,102296.60
2023-02-14T18:49:16.151Z,102291.00